createdAt,value
2023-05-01T05:18:04.571Z,11.10
2023-05-01T05:21:06.614Z,11.10
2023-05-01T05:24:08.266Z,11.10
2023-05-01T05:27:10.137Z,11.20
2023-05-01T05:30:12.141Z,11.20
2023-05-01T05:33:13.903Z,11.30
2023-05-01T05:36:15.668Z,11.30
2023-05-01T05:39:17.802Z,11.30
2023-05-01T05:42:19.526Z,11.30
2023-05-01T05:45:21.223Z,11.40
2023-05-01T05:48:23.215Z,11.40
2023-05-01T05:51:24.926Z,11.40
2023-05-01T05:54:26.681Z,11.40
2023-05-01T05:57:29.788Z,11.40
2023-05-01T06:00:31.513Z,11.40
2023-05-01T06:03:33.353Z,11.50
2023-05-01T06:06:35.305Z,11.50
2023-05-01T06:09:37.344Z,11.50
2023-05-01T06:12:41.497Z,11.60
2023-05-01T06:15:46.505Z,11.70
2023-05-01T06:18:48.187Z,11.60
2023-05-01T06:21:49.867Z,11.50
2023-05-01T06:24:51.947Z,11.50
2023-05-01T06:27:54.038Z,11.40
2023-05-01T06:30:55.992Z,11.50
2023-05-01T06:33:57.687Z,11.50
2023-05-01T06:36:59.423Z,11.50
2023-05-01T06:40:01.106Z,11.50
2023-05-01T06:43:03.512Z,11.60
2023-05-01T06:46:05.202Z,11.70
2023-05-01T06:49:06.932Z,11.70
2023-05-01T06:52:08.596Z,11.80
2023-05-01T06:55:10.437Z,11.80
2023-05-01T06:58:22.515Z,11.80
2023-05-01T07:01:25.704Z,11.80
2023-05-01T07:04:27.390Z,11.90
2023-05-01T07:07:30.842Z,11.90
2023-05-01T07:10:32.677Z,11.90
2023-05-01T07:13:34.319Z,12.00
2023-05-01T07:16:36.100Z,12.20
2023-05-01T07:19:38.034Z,12.20
2023-05-01T07:22:39.720Z,12.10
2023-05-01T07:25:41.439Z,12.10
2023-05-01T07:28:43.421Z,12.10
2023-05-01T07:31:46.089Z,12.30
2023-05-01T07:34:47.838Z,12.50
2023-05-01T07:37:52.822Z,12.50
2023-05-01T07:40:54.484Z,12.50
2023-05-01T07:43:58.114Z,12.50
2023-05-01T07:47:06.412Z,12.50
2023-05-01T07:50:11.805Z,12.30
2023-05-01T07:53:13.491Z,12.50
2023-05-01T07:56:15.265Z,12.50
2023-05-01T07:59:17.107Z,12.50
2023-05-01T08:02:18.787Z,12.50
2023-05-01T08:05:20.606Z,12.50
2023-05-01T08:08:22.571Z,12.50
2023-05-01T08:11:25.055Z,12.50
2023-05-01T08:14:26.713Z,12.50
2023-05-01T08:17:28.490Z,12.50
2023-05-01T08:20:30.326Z,12.80
2023-05-01T08:23:32.049Z,12.80
2023-05-01T08:26:33.761Z,12.80
2023-05-01T08:29:35.627Z,12.80
2023-05-01T08:32:37.380Z,12.70
2023-05-01T08:35:39.125Z,12.70
2023-05-01T08:38:41.050Z,12.70
2023-05-01T08:41:46.376Z,12.70
2023-05-01T08:44:48.399Z,12.80
2023-05-01T08:47:50.368Z,12.90
2023-05-01T08:50:52.122Z,13.00
2023-05-01T08:53:53.820Z,13.10
2023-05-01T08:56:55.709Z,13.30
2023-05-01T08:59:58.163Z,13.50
2023-05-01T09:03:01.324Z,13.60
2023-05-01T09:06:03.391Z,13.90
2023-05-01T09:09:05.718Z,14.20
2023-05-01T09:12:24.524Z,14.40
2023-05-01T09:15:27.024Z,14.60
2023-05-01T09:18:28.902Z,14.90
2023-05-01T09:21:32.046Z,14.90
2023-05-01T09:24:33.989Z,15.00
2023-05-01T09:27:39.516Z,15.00
2023-05-01T09:30:41.174Z,14.80
2023-05-01T09:33:54.001Z,14.60
2023-05-01T09:36:56.060Z,14.50
2023-05-01T09:40:15.486Z,14.50
2023-05-01T09:43:27.366Z,14.80
2023-05-01T09:46:29.320Z,15.00
2023-05-01T09:49:44.705Z,15.30
2023-05-01T09:52:50.043Z,15.60
2023-05-01T09:56:00.677Z,15.90
2023-05-01T09:59:22.859Z,16.00
2023-05-01T10:02:30.796Z,16.00
2023-05-01T10:05:43.128Z,15.70
2023-05-01T10:08:49.388Z,15.50
2023-05-01T10:11:57.255Z,15.20
2023-05-01T10:15:01.775Z,15.00
2023-05-01T10:18:08.934Z,14.90
2023-05-01T10:21:10.816Z,14.90
2023-05-01T10:24:12.682Z,14.90
2023-05-01T10:27:14.579Z,15.20
2023-05-01T10:30:16.304Z,15.50
2023-05-01T10:33:18.153Z,15.80
2023-05-01T10:36:28.710Z,15.90
2023-05-01T10:39:34.267Z,15.90
2023-05-01T10:42:54.481Z,16.00
2023-05-01T10:46:08.553Z,16.00
2023-05-01T10:49:12.747Z,15.90
2023-05-01T10:52:15.755Z,16.00
2023-05-01T10:55:36.303Z,16.10
2023-05-01T10:58:41.228Z,16.40
2023-05-01T11:01:47.658Z,16.40
2023-05-01T11:04:51.683Z,16.60
2023-05-01T11:08:34.198Z,16.80
2023-05-01T11:11:36.168Z,16.90
2023-05-01T11:15:05.875Z,17.00
2023-05-01T11:18:08.004Z,17.00
2023-05-01T11:21:09.704Z,16.90
2023-05-01T11:24:11.397Z,16.90
2023-05-01T11:27:16.064Z,17.00
2023-05-01T11:30:18.153Z,17.20
2023-05-01T11:33:25.761Z,17.30
2023-05-01T11:36:28.258Z,17.40
2023-05-01T11:39:30.041Z,17.50
2023-05-01T11:42:31.931Z,17.50
2023-05-01T11:45:34.880Z,17.50
2023-05-01T11:48:36.868Z,17.80
2023-05-01T11:51:38.574Z,18.10
2023-05-01T11:54:48.136Z,18.10
2023-05-01T11:57:53.386Z,18.10
2023-05-01T12:00:55.189Z,18.00
2023-05-01T12:03:57.360Z,17.90
2023-05-01T12:07:04.804Z,18.00
2023-05-01T12:10:07.601Z,18.30
2023-05-01T12:13:10.421Z,18.60
2023-05-01T12:16:12.113Z,18.50
2023-05-01T12:19:15.089Z,18.30
2023-05-01T12:22:16.866Z,18.30
2023-05-01T12:25:19.418Z,18.10
2023-05-01T12:28:21.460Z,18.10
2023-05-01T12:31:23.597Z,18.00
2023-05-01T12:34:29.934Z,18.00
2023-05-01T12:37:35.005Z,18.00
2023-05-01T12:40:36.685Z,18.10
2023-05-01T12:43:38.403Z,18.00
2023-05-01T12:46:40.237Z,17.90
2023-05-01T12:49:42.013Z,18.00
2023-05-01T12:52:43.780Z,18.00
2023-05-01T12:55:49.722Z,17.80
2023-05-01T12:58:53.516Z,17.70
2023-05-01T13:02:03.527Z,17.50
2023-05-01T13:05:09.838Z,17.40
2023-05-01T13:08:11.706Z,17.50
2023-05-01T13:11:17.410Z,17.50
2023-05-01T13:14:19.102Z,17.60
2023-05-01T13:17:28.668Z,17.80
2023-05-01T13:20:30.593Z,17.80
2023-05-01T13:23:32.356Z,18.00
2023-05-01T13:26:35.680Z,18.10
2023-05-01T13:29:38.546Z,18.40
2023-05-01T13:32:41.340Z,18.70
2023-05-01T13:35:43.206Z,19.00
2023-05-01T13:38:57.178Z,19.50
2023-05-01T13:42:03.013Z,19.70
2023-05-01T13:45:06.448Z,19.50
2023-05-01T13:48:11.786Z,19.20
2023-05-01T13:51:14.423Z,19.30
2023-05-01T13:54:16.566Z,19.40
2023-05-01T13:57:19.859Z,19.30
2023-05-01T14:00:24.016Z,19.50
2023-05-01T14:03:25.793Z,19.90
2023-05-01T14:06:28.793Z,20.10
2023-05-01T14:09:30.779Z,20.50
2023-05-01T14:12:32.542Z,20.80
2023-05-01T14:15:34.282Z,21.10
2023-05-01T14:18:36.492Z,21.10
2023-05-01T14:21:44.303Z,21.00
2023-05-01T14:24:46.020Z,20.50
2023-05-01T14:27:48.075Z,20.00
2023-05-01T14:30:50.921Z,20.00
2023-05-01T14:33:56.323Z,19.70
2023-05-01T14:36:58.529Z,19.50
2023-05-01T14:40:02.097Z,19.40
2023-05-01T14:43:04.063Z,19.10
2023-05-01T14:46:05.892Z,19.10
2023-05-01T14:49:07.906Z,19.00
2023-05-01T14:52:09.567Z,18.90
2023-05-01T14:55:11.920Z,18.90
2023-05-01T14:58:13.832Z,18.70
2023-05-01T15:01:15.741Z,18.40
2023-05-01T15:04:18.095Z,18.10
2023-05-01T15:07:20.035Z,17.80
2023-05-01T15:10:23.463Z,17.50
2023-05-01T15:13:25.136Z,17.40
2023-05-01T15:16:27.554Z,17.20
2023-05-01T15:19:29.261Z,17.30
2023-05-01T15:22:31.268Z,17.40
2023-05-01T15:25:33.024Z,17.40
2023-05-01T15:28:34.726Z,17.50
2023-05-01T15:31:36.617Z,17.60
2023-05-01T15:34:38.371Z,17.70
2023-05-01T15:37:40.335Z,17.80
2023-05-01T15:40:45.233Z,17.80
2023-05-01T15:43:46.966Z,17.80
2023-05-01T15:46:48.923Z,17.70
2023-05-01T15:49:50.795Z,17.60
2023-05-01T15:52:52.500Z,17.60
2023-05-01T15:55:58.169Z,17.50
2023-05-01T15:59:05.091Z,17.80
2023-05-01T16:02:08.727Z,18.00
2023-05-01T16:05:10.735Z,18.70
2023-05-01T16:08:12.863Z,19.50
2023-05-01T16:11:14.594Z,19.50
2023-05-01T16:14:16.316Z,20.30
2023-05-01T16:17:18.513Z,21.30
2023-05-01T16:20:20.258Z,22.30
2023-05-01T16:23:22.595Z,22.70
2023-05-01T16:26:28.023Z,22.80
2023-05-01T16:29:32.852Z,22.00
2023-05-01T16:32:34.896Z,21.30
2023-05-01T16:35:36.812Z,20.70
2023-05-01T16:38:39.699Z,20.50
2023-05-01T16:41:48.044Z,20.00
2023-05-01T16:44:49.853Z,19.50
2023-05-01T16:47:51.921Z,19.20
2023-05-01T16:50:53.619Z,19.00
2023-05-01T16:53:55.284Z,18.90
2023-05-01T16:56:57.256Z,18.90
2023-05-01T16:59:59.157Z,18.80
2023-05-01T17:03:02.219Z,18.50
2023-05-01T17:06:04.551Z,18.20
2023-05-01T17:09:09.536Z,18.10
2023-05-01T17:12:11.198Z,18.10
2023-05-01T17:15:12.853Z,18.10
2023-05-01T17:18:14.585Z,18.40
2023-05-01T17:21:16.385Z,19.00
2023-05-01T17:24:18.080Z,19.20
2023-05-01T17:27:19.869Z,19.00
2023-05-01T17:30:21.517Z,18.60
2023-05-01T17:33:23.248Z,18.30
2023-05-01T17:36:24.932Z,18.10
2023-05-01T17:39:27.503Z,18.00
2023-05-01T17:42:29.143Z,17.80
2023-05-01T17:45:30.858Z,17.80
2023-05-01T17:48:33.248Z,17.80
2023-05-01T17:51:35.120Z,17.70
2023-05-01T17:54:37.373Z,17.60
2023-05-01T17:57:40.034Z,17.90
2023-05-01T18:00:41.962Z,18.00
2023-05-01T18:03:43.720Z,18.10
2023-05-01T18:06:46.196Z,18.10
2023-05-01T18:09:47.949Z,18.10
2023-05-01T18:12:49.852Z,18.10
2023-05-01T18:15:52.058Z,18.20
2023-05-01T18:18:53.809Z,18.30
2023-05-01T18:21:55.481Z,18.30
2023-05-01T18:24:57.291Z,18.20
2023-05-01T18:27:59.545Z,18.00
2023-05-01T18:31:01.688Z,17.90
2023-05-01T18:34:04.061Z,17.80
2023-05-01T18:37:06.411Z,17.70
2023-05-01T18:40:09.604Z,17.60
2023-05-01T18:43:12.182Z,17.50
2023-05-01T18:46:13.894Z,17.30
2023-05-01T18:49:15.673Z,17.10
2023-05-01T18:52:17.351Z,16.90
2023-05-01T18:55:19.152Z,16.80
2023-05-01T18:58:21.398Z,16.70
2023-05-01T19:01:23.389Z,16.70
2023-05-01T19:04:25.152Z,16.70
2023-05-01T19:07:27.224Z,16.60
2023-05-01T19:10:28.920Z,16.50
2023-05-01T19:13:31.714Z,16.40
2023-05-01T19:16:33.569Z,16.40
2023-05-01T19:19:35.321Z,16.30
2023-05-01T19:22:37.051Z,16.20
2023-05-01T19:25:38.719Z,16.10
2023-05-01T19:28:44.807Z,16.10
2023-05-01T19:31:46.510Z,16.10
2023-05-01T19:34:48.560Z,16.10
2023-05-01T19:37:57.110Z,16.10
2023-05-01T19:40:58.774Z,16.10
2023-05-01T19:44:00.876Z,16.00
2023-05-01T19:47:02.815Z,16.00
2023-05-01T19:50:05.015Z,15.90
2023-05-01T19:53:06.800Z,15.80
2023-05-01T19:56:08.470Z,15.70
2023-05-01T19:59:10.592Z,15.60
2023-05-01T20:02:12.441Z,15.50
2023-05-01T20:05:14.335Z,15.40
2023-05-01T20:08:16.127Z,15.30
2023-05-01T20:11:18.102Z,15.10
2023-05-01T20:14:19.772Z,15.00
2023-05-01T20:17:21.704Z,14.80
2023-05-01T20:20:23.610Z,14.70
2023-05-01T20:23:25.354Z,14.60
2023-05-01T20:26:27.127Z,14.50
2023-05-01T20:29:28.946Z,14.40
2023-05-01T20:32:30.756Z,14.30
2023-05-01T20:35:33.713Z,14.20
2023-05-01T20:38:45.421Z,14.20
2023-05-01T20:41:47.703Z,14.20
2023-05-01T20:44:49.494Z,14.20
2023-05-01T20:47:51.558Z,14.20
2023-05-01T20:50:53.680Z,14.20
2023-05-01T20:53:55.366Z,14.20
2023-05-01T20:56:57.435Z,14.20
2023-05-01T21:00:00.894Z,14.20
2023-05-01T21:03:03.072Z,14.20
2023-05-01T21:06:04.804Z,14.30
2023-05-01T21:09:27.589Z,14.30
2023-05-01T21:12:29.281Z,14.30
